sensor_id;sensor_type;location;lat;lon;timestamp;temperature;humidity
49224;DHT22;35050;51.316;5.994;2023-03-08T00:01:15;3.60;99.90
49224;DHT22;35050;51.316;5.994;2023-03-08T00:03:41;3.60;99.90
49224;DHT22;35050;51.316;5.994;2023-03-08T00:06:11;3.70;99.90
49224;DHT22;35050;51.316;5.994;2023-03-08T00:08:37;3.80;99.90
49224;DHT22;35050;51.316;5.994;2023-03-08T00:11:05;3.80;99.90
49224;DHT22;35050;51.316;5.994;2023-03-08T00:13:30;3.60;99.90
49224;DHT22;35050;51.316;5.994;2023-03-08T00:16:04;3.70;99.90
49224;DHT22;35050;51.316;5.994;2023-03-08T00:18:31;3.70;99.90
49224;DHT22;35050;51.316;5.994;2023-03-08T00:21:06;3.70;99.90
49224;DHT22;35050;51.316;5.994;2023-03-08T00:23:32;3.80;99.90
49224;DHT22;35050;51.316;5.994;2023-03-08T00:25:58;3.80;99.90
49224;DHT22;35050;51.316;5.994;2023-03-08T00:28:24;3.80;99.90
49224;DHT22;35050;51.316;5.994;2023-03-08T00:33:22;3.80;99.90
49224;DHT22;35050;51.316;5.994;2023-03-08T00:35:59;3.80;99.90
49224;DHT22;35050;51.316;5.994;2023-03-08T00:38:26;3.70;99.90
49224;DHT22;35050;51.316;5.994;2023-03-08T00:40:52;3.70;99.90
49224;DHT22;35050;51.316;5.994;2023-03-08T00:43:18;3.80;99.90
49224;DHT22;35050;51.316;5.994;2023-03-08T00:45:43;3.80;99.90
49224;DHT22;35050;51.316;5.994;2023-03-08T00:48:09;3.90;99.90
49224;DHT22;35050;51.316;5.994;2023-03-08T00:50:35;3.80;99.90
49224;DHT22;35050;51.316;5.994;2023-03-08T00:53:00;3.80;99.90
49224;DHT22;35050;51.316;5.994;2023-03-08T00:55:26;3.70;99.90
49224;DHT22;35050;51.316;5.994;2023-03-08T00:57:52;3.80;99.90
49224;DHT22;35050;51.316;5.994;2023-03-08T01:00:18;3.80;99.90
49224;DHT22;35050;51.316;5.994;2023-03-08T01:02:43;3.80;99.90
49224;DHT22;35050;51.316;5.994;2023-03-08T01:05:09;3.80;99.90
49224;DHT22;35050;51.316;5.994;2023-03-08T01:07:35;3.70;99.90
49224;DHT22;35050;51.316;5.994;2023-03-08T01:10:01;3.80;99.90
49224;DHT22;35050;51.316;5.994;2023-03-08T01:12:31;3.80;99.90
49224;DHT22;35050;51.316;5.994;2023-03-08T01:14:57;3.70;99.90
49224;DHT22;35050;51.316;5.994;2023-03-08T01:17:23;3.70;99.90
49224;DHT22;35050;51.316;5.994;2023-03-08T01:19:48;3.70;99.90
49224;DHT22;35050;51.316;5.994;2023-03-08T01:22:14;3.70;99.90
49224;DHT22;35050;51.316;5.994;2023-03-08T01:24:46;3.80;99.90
49224;DHT22;35050;51.316;5.994;2023-03-08T01:27:12;3.80;99.90
49224;DHT22;35050;51.316;5.994;2023-03-08T01:29:39;3.80;99.90
49224;DHT22;35050;51.316;5.994;2023-03-08T01:32:05;3.80;99.90
49224;DHT22;35050;51.316;5.994;2023-03-08T01:34:30;3.80;99.90
49224;DHT22;35050;51.316;5.994;2023-03-08T01:36:56;3.80;99.90
49224;DHT22;35050;51.316;5.994;2023-03-08T01:39:21;3.80;99.90
49224;DHT22;35050;51.316;5.994;2023-03-08T01:41:47;3.70;99.90
49224;DHT22;35050;51.316;5.994;2023-03-08T01:44:18;3.70;99.90
49224;DHT22;35050;51.316;5.994;2023-03-08T01:46:44;3.70;99.90
49224;DHT22;35050;51.316;5.994;2023-03-08T01:49:23;3.80;99.90
49224;DHT22;35050;51.316;5.994;2023-03-08T01:54:33;3.60;99.90
49224;DHT22;35050;51.316;5.994;2023-03-08T01:57:03;3.70;99.90
49224;DHT22;35050;51.316;5.994;2023-03-08T01:59:32;3.60;99.90
49224;DHT22;35050;51.316;5.994;2023-03-08T02:01:59;3.60;99.90
49224;DHT22;35050;51.316;5.994;2023-03-08T02:04:25;3.80;99.90
49224;DHT22;35050;51.316;5.994;2023-03-08T02:06:51;3.70;99.90
49224;DHT22;35050;51.316;5.994;2023-03-08T02:09:17;3.80;99.90
49224;DHT22;35050;51.316;5.994;2023-03-08T02:11:43;3.80;99.90
49224;DHT22;35050;51.316;5.994;2023-03-08T02:14:09;3.70;99.90
49224;DHT22;35050;51.316;5.994;2023-03-08T02:16:35;3.80;99.90
49224;DHT22;35050;51.316;5.994;2023-03-08T02:19:04;3.90;99.90
49224;DHT22;35050;51.316;5.994;2023-03-08T02:21:31;3.80;99.90
49224;DHT22;35050;51.316;5.994;2023-03-08T02:24:05;3.80;99.90
49224;DHT22;35050;51.316;5.994;2023-03-08T02:26:32;3.70;99.90
49224;DHT22;35050;51.316;5.994;2023-03-08T02:29:00;3.60;99.90
49224;DHT22;35050;51.316;5.994;2023-03-08T02:31:25;3.50;99.90
49224;DHT22;35050;51.316;5.994;2023-03-08T02:33:51;3.50;99.90
49224;DHT22;35050;51.316;5.994;2023-03-08T02:36:16;3.50;99.90
49224;DHT22;35050;51.316;5.994;2023-03-08T02:38:42;3.70;99.90
49224;DHT22;35050;51.316;5.994;2023-03-08T02:41:08;3.80;99.90
49224;DHT22;35050;51.316;5.994;2023-03-08T02:43:33;3.60;99.90
49224;DHT22;35050;51.316;5.994;2023-03-08T02:45:59;3.60;99.90
49224;DHT22;35050;51.316;5.994;2023-03-08T02:48:25;3.70;99.90
49224;DHT22;35050;51.316;5.994;2023-03-08T02:50:51;3.70;99.90
49224;DHT22;35050;51.316;5.994;2023-03-08T02:53:16;3.80;99.90
49224;DHT22;35050;51.316;5.994;2023-03-08T02:55:42;3.60;99.90
49224;DHT22;35050;51.316;5.994;2023-03-08T02:58:08;3.60;99.90
49224;DHT22;35050;51.316;5.994;2023-03-08T03:00:35;3.50;99.90
49224;DHT22;35050;51.316;5.994;2023-03-08T03:03:01;3.50;99.90
49224;DHT22;35050;51.316;5.994;2023-03-08T03:05:27;3.40;99.90
49224;DHT22;35050;51.316;5.994;2023-03-08T03:07:52;3.50;99.90
49224;DHT22;35050;51.316;5.994;2023-03-08T03:10:20;3.60;99.90
49224;DHT22;35050;51.316;5.994;2023-03-08T03:12:45;3.60;99.90
49224;DHT22;35050;51.316;5.994;2023-03-08T03:15:11;3.50;99.90
49224;DHT22;35050;51.316;5.994;2023-03-08T03:17:37;3.60;99.90
49224;DHT22;35050;51.316;5.994;2023-03-08T03:20:04;3.50;99.90
49224;DHT22;35050;51.316;5.994;2023-03-08T03:22:31;3.40;99.90
49224;DHT22;35050;51.316;5.994;2023-03-08T03:24:57;3.40;99.90
49224;DHT22;35050;51.316;5.994;2023-03-08T03:27:22;3.30;99.90
49224;DHT22;35050;51.316;5.994;2023-03-08T03:29:48;3.10;99.90
49224;DHT22;35050;51.316;5.994;2023-03-08T03:32:14;3.10;99.90
49224;DHT22;35050;51.316;5.994;2023-03-08T03:34:39;3.00;99.90
49224;DHT22;35050;51.316;5.994;2023-03-08T03:37:05;3.20;99.90
49224;DHT22;35050;51.316;5.994;2023-03-08T03:39:34;3.20;99.90
49224;DHT22;35050;51.316;5.994;2023-03-08T03:42:00;3.30;99.90
49224;DHT22;35050;51.316;5.994;2023-03-08T03:44:28;3.30;99.90
49224;DHT22;35050;51.316;5.994;2023-03-08T03:46:54;3.20;99.90
49224;DHT22;35050;51.316;5.994;2023-03-08T03:49:20;3.30;99.90
49224;DHT22;35050;51.316;5.994;2023-03-08T03:51:46;3.00;99.90
49224;DHT22;35050;51.316;5.994;2023-03-08T03:54:11;3.00;99.90
49224;DHT22;35050;51.316;5.994;2023-03-08T03:56:37;2.90;99.90
49224;DHT22;35050;51.316;5.994;2023-03-08T03:59:02;3.00;99.90
49224;DHT22;35050;51.316;5.994;2023-03-08T04:01:30;3.00;99.90
49224;DHT22;35050;51.316;5.994;2023-03-08T04:03:56;3.20;99.90
49224;DHT22;35050;51.316;5.994;2023-03-08T04:06:24;3.20;99.90
49224;DHT22;35050;51.316;5.994;2023-03-08T04:08:54;3.30;99.90
49224;DHT22;35050;51.316;5.994;2023-03-08T04:11:23;3.50;99.90
49224;DHT22;35050;51.316;5.994;2023-03-08T04:13:49;3.50;99.90
49224;DHT22;35050;51.316;5.994;2023-03-08T04:16:23;3.50;99.90
49224;DHT22;35050;51.316;5.994;2023-03-08T04:18:54;3.40;99.90
49224;DHT22;35050;51.316;5.994;2023-03-08T04:21:20;3.40;99.90
49224;DHT22;35050;51.316;5.994;2023-03-08T04:23:46;3.50;99.90
49224;DHT22;35050;51.316;5.994;2023-03-08T04:26:12;3.50;99.90
49224;DHT22;35050;51.316;5.994;2023-03-08T04:28:38;3.20;99.90
49224;DHT22;35050;51.316;5.994;2023-03-08T04:31:18;3.20;99.90
49224;DHT22;35050;51.316;5.994;2023-03-08T04:33:45;3.20;99.90
49224;DHT22;35050;51.316;5.994;2023-03-08T04:36:12;3.00;99.90
49224;DHT22;35050;51.316;5.994;2023-03-08T04:38:38;3.20;99.90
49224;DHT22;35050;51.316;5.994;2023-03-08T04:41:04;3.30;99.90
49224;DHT22;35050;51.316;5.994;2023-03-08T04:43:34;3.10;99.90
49224;DHT22;35050;51.316;5.994;2023-03-08T04:46:01;3.30;99.90
49224;DHT22;35050;51.316;5.994;2023-03-08T04:48:27;2.90;99.90
49224;DHT22;35050;51.316;5.994;2023-03-08T04:50:54;3.00;99.90
49224;DHT22;35050;51.316;5.994;2023-03-08T04:53:20;3.20;99.90
49224;DHT22;35050;51.316;5.994;2023-03-08T04:55:46;3.10;99.90
49224;DHT22;35050;51.316;5.994;2023-03-08T04:58:12;3.30;99.90
49224;DHT22;35050;51.316;5.994;2023-03-08T05:00:37;3.10;99.90
49224;DHT22;35050;51.316;5.994;2023-03-08T05:03:03;3.20;99.90
49224;DHT22;35050;51.316;5.994;2023-03-08T05:05:29;3.40;99.90
49224;DHT22;35050;51.316;5.994;2023-03-08T05:07:54;3.30;99.90
49224;DHT22;35050;51.316;5.994;2023-03-08T05:10:20;3.40;99.90
49224;DHT22;35050;51.316;5.994;2023-03-08T05:12:45;3.10;99.90
49224;DHT22;35050;51.316;5.994;2023-03-08T05:15:11;3.20;99.90
49224;DHT22;35050;51.316;5.994;2023-03-08T05:17:37;3.20;99.90
49224;DHT22;35050;51.316;5.994;2023-03-08T05:20:02;3.20;99.90
49224;DHT22;35050;51.316;5.994;2023-03-08T05:22:28;3.30;99.90
49224;DHT22;35050;51.316;5.994;2023-03-08T05:24:54;3.20;99.90
49224;DHT22;35050;51.316;5.994;2023-03-08T05:27:20;3.10;99.90
49224;DHT22;35050;51.316;5.994;2023-03-08T05:29:45;3.00;99.90
49224;DHT22;35050;51.316;5.994;2023-03-08T05:32:12;2.90;99.90
49224;DHT22;35050;51.316;5.994;2023-03-08T05:34:37;3.00;99.90
49224;DHT22;35050;51.316;5.994;2023-03-08T05:37:03;2.90;99.90
49224;DHT22;35050;51.316;5.994;2023-03-08T05:39:29;2.70;99.90
49224;DHT22;35050;51.316;5.994;2023-03-08T05:41:55;2.70;99.90
49224;DHT22;35050;51.316;5.994;2023-03-08T05:44:21;2.90;99.90
49224;DHT22;35050;51.316;5.994;2023-03-08T05:46:49;2.70;99.90
49224;DHT22;35050;51.316;5.994;2023-03-08T05:49:15;2.60;99.90
49224;DHT22;35050;51.316;5.994;2023-03-08T05:51:40;2.80;99.90
49224;DHT22;35050;51.316;5.994;2023-03-08T05:54:07;2.70;99.90
49224;DHT22;35050;51.316;5.994;2023-03-08T05:56:32;2.60;99.90
49224;DHT22;35050;51.316;5.994;2023-03-08T05:58:58;2.60;99.90
49224;DHT22;35050;51.316;5.994;2023-03-08T06:01:25;2.50;99.90
49224;DHT22;35050;51.316;5.994;2023-03-08T06:03:54;2.50;99.90
49224;DHT22;35050;51.316;5.994;2023-03-08T06:06:21;2.40;99.90
49224;DHT22;35050;51.316;5.994;2023-03-08T06:08:47;2.50;99.90
49224;DHT22;35050;51.316;5.994;2023-03-08T06:11:13;2.40;99.90
49224;DHT22;35050;51.316;5.994;2023-03-08T06:13:39;2.30;99.90
49224;DHT22;35050;51.316;5.994;2023-03-08T06:16:05;2.30;99.90
49224;DHT22;35050;51.316;5.994;2023-03-08T06:18:31;2.20;99.90
49224;DHT22;35050;51.316;5.994;2023-03-08T06:21:00;2.20;99.90
49224;DHT22;35050;51.316;5.994;2023-03-08T06:23:27;2.40;99.90
49224;DHT22;35050;51.316;5.994;2023-03-08T06:25:53;2.30;99.90
49224;DHT22;35050;51.316;5.994;2023-03-08T06:28:19;2.20;99.90
49224;DHT22;35050;51.316;5.994;2023-03-08T06:30:46;2.20;99.90
49224;DHT22;35050;51.316;5.994;2023-03-08T06:33:14;2.20;99.90
49224;DHT22;35050;51.316;5.994;2023-03-08T06:35:40;2.20;99.90
49224;DHT22;35050;51.316;5.994;2023-03-08T06:38:06;2.20;99.90
49224;DHT22;35050;51.316;5.994;2023-03-08T06:40:31;2.50;99.90
49224;DHT22;35050;51.316;5.994;2023-03-08T06:42:57;2.10;99.90
49224;DHT22;35050;51.316;5.994;2023-03-08T06:45:23;2.10;99.90
49224;DHT22;35050;51.316;5.994;2023-03-08T06:47:48;2.00;99.90
49224;DHT22;35050;51.316;5.994;2023-03-08T06:50:14;2.10;99.90
49224;DHT22;35050;51.316;5.994;2023-03-08T06:52:39;2.00;99.90
49224;DHT22;35050;51.316;5.994;2023-03-08T06:55:06;2.10;99.90
49224;DHT22;35050;51.316;5.994;2023-03-08T06:57:31;2.00;99.90
49224;DHT22;35050;51.316;5.994;2023-03-08T06:59:57;2.10;99.90
49224;DHT22;35050;51.316;5.994;2023-03-08T07:02:23;1.80;99.90
49224;DHT22;35050;51.316;5.994;2023-03-08T07:04:48;2.00;99.90
49224;DHT22;35050;51.316;5.994;2023-03-08T07:07:14;2.10;99.90
49224;DHT22;35050;51.316;5.994;2023-03-08T07:09:40;2.20;99.90
49224;DHT22;35050;51.316;5.994;2023-03-08T07:12:05;2.10;99.90
49224;DHT22;35050;51.316;5.994;2023-03-08T07:14:31;2.00;99.90
49224;DHT22;35050;51.316;5.994;2023-03-08T07:16:56;2.00;99.90
49224;DHT22;35050;51.316;5.994;2023-03-08T07:19:22;1.90;99.90
49224;DHT22;35050;51.316;5.994;2023-03-08T07:21:48;2.20;99.90
49224;DHT22;35050;51.316;5.994;2023-03-08T07:24:13;2.00;99.90
49224;DHT22;35050;51.316;5.994;2023-03-08T07:26:39;2.10;99.90
49224;DHT22;35050;51.316;5.994;2023-03-08T07:29:05;2.10;99.90
49224;DHT22;35050;51.316;5.994;2023-03-08T07:31:30;2.10;99.90
49224;DHT22;35050;51.316;5.994;2023-03-08T07:34:01;2.10;99.90
49224;DHT22;35050;51.316;5.994;2023-03-08T07:36:26;2.00;99.90
49224;DHT22;35050;51.316;5.994;2023-03-08T07:38:52;2.00;99.90
49224;DHT22;35050;51.316;5.994;2023-03-08T07:41:18;2.30;99.90
49224;DHT22;35050;51.316;5.994;2023-03-08T07:43:43;2.00;99.90
49224;DHT22;35050;51.316;5.994;2023-03-08T07:46:09;2.20;99.90
49224;DHT22;35050;51.316;5.994;2023-03-08T07:48:34;2.00;99.90
49224;DHT22;35050;51.316;5.994;2023-03-08T07:51:02;2.10;99.90
49224;DHT22;35050;51.316;5.994;2023-03-08T07:53:30;2.10;99.90
49224;DHT22;35050;51.316;5.994;2023-03-08T07:55:58;1.90;99.90
49224;DHT22;35050;51.316;5.994;2023-03-08T07:58:24;2.10;99.90
49224;DHT22;35050;51.316;5.994;2023-03-08T08:00:50;2.00;99.90
49224;DHT22;35050;51.316;5.994;2023-03-08T08:03:15;2.00;99.90
49224;DHT22;35050;51.316;5.994;2023-03-08T08:05:41;2.10;99.90
49224;DHT22;35050;51.316;5.994;2023-03-08T08:08:07;1.90;99.90
49224;DHT22;35050;51.316;5.994;2023-03-08T08:10:32;2.00;99.90
49224;DHT22;35050;51.316;5.994;2023-03-08T08:12:58;2.00;99.90
49224;DHT22;35050;51.316;5.994;2023-03-08T08:15:23;1.90;99.90
49224;DHT22;35050;51.316;5.994;2023-03-08T08:17:50;1.90;99.90
49224;DHT22;35050;51.316;5.994;2023-03-08T08:20:16;2.50;99.90
49224;DHT22;35050;51.316;5.994;2023-03-08T08:22:42;2.50;99.90
49224;DHT22;35050;51.316;5.994;2023-03-08T08:25:08;2.30;99.90
49224;DHT22;35050;51.316;5.994;2023-03-08T08:27:34;2.30;99.90
49224;DHT22;35050;51.316;5.994;2023-03-08T08:30:01;2.20;99.90
49224;DHT22;35050;51.316;5.994;2023-03-08T08:32:27;2.10;99.90
49224;DHT22;35050;51.316;5.994;2023-03-08T08:34:52;2.20;99.90
49224;DHT22;35050;51.316;5.994;2023-03-08T08:37:18;2.20;99.90
49224;DHT22;35050;51.316;5.994;2023-03-08T08:39:44;2.30;99.90
49224;DHT22;35050;51.316;5.994;2023-03-08T08:42:09;2.20;99.90
49224;DHT22;35050;51.316;5.994;2023-03-08T08:44:35;2.40;99.90
49224;DHT22;35050;51.316;5.994;2023-03-08T08:47:01;2.30;99.90
49224;DHT22;35050;51.316;5.994;2023-03-08T08:49:26;2.20;99.90
49224;DHT22;35050;51.316;5.994;2023-03-08T08:51:52;2.10;99.90
49224;DHT22;35050;51.316;5.994;2023-03-08T08:54:18;2.50;99.90
49224;DHT22;35050;51.316;5.994;2023-03-08T08:56:43;2.50;99.90
49224;DHT22;35050;51.316;5.994;2023-03-08T08:59:11;2.50;99.90
49224;DHT22;35050;51.316;5.994;2023-03-08T09:01:37;2.70;99.90
49224;DHT22;35050;51.316;5.994;2023-03-08T09:04:11;2.60;99.90
49224;DHT22;35050;51.316;5.994;2023-03-08T09:06:38;2.60;99.90
49224;DHT22;35050;51.316;5.994;2023-03-08T09:09:04;2.60;99.90
49224;DHT22;35050;51.316;5.994;2023-03-08T09:11:30;2.50;99.90
49224;DHT22;35050;51.316;5.994;2023-03-08T09:13:56;2.60;99.90
49224;DHT22;35050;51.316;5.994;2023-03-08T09:18:49;2.70;99.90
49224;DHT22;35050;51.316;5.994;2023-03-08T09:21:15;2.60;99.90
49224;DHT22;35050;51.316;5.994;2023-03-08T09:23:41;2.50;99.90
49224;DHT22;35050;51.316;5.994;2023-03-08T09:26:07;2.60;99.90
49224;DHT22;35050;51.316;5.994;2023-03-08T09:28:33;2.70;99.90
49224;DHT22;35050;51.316;5.994;2023-03-08T09:30:59;2.80;99.90
49224;DHT22;35050;51.316;5.994;2023-03-08T09:33:27;3.00;99.90
49224;DHT22;35050;51.316;5.994;2023-03-08T09:36:00;2.90;99.90
49224;DHT22;35050;51.316;5.994;2023-03-08T09:38:25;2.80;99.90
49224;DHT22;35050;51.316;5.994;2023-03-08T09:43:46;3.10;99.90
49224;DHT22;35050;51.316;5.994;2023-03-08T09:46:22;3.10;99.90
49224;DHT22;35050;51.316;5.994;2023-03-08T09:48:51;3.30;99.90
49224;DHT22;35050;51.316;5.994;2023-03-08T09:51:20;3.20;99.90
49224;DHT22;35050;51.316;5.994;2023-03-08T09:53:54;3.10;99.90
49224;DHT22;35050;51.316;5.994;2023-03-08T09:56:35;3.00;99.90
49224;DHT22;35050;51.316;5.994;2023-03-08T09:59:10;3.30;99.90
49224;DHT22;35050;51.316;5.994;2023-03-08T10:10:44;3.30;99.90
49224;DHT22;35050;51.316;5.994;2023-03-08T10:15:51;3.30;99.90
49224;DHT22;35050;51.316;5.994;2023-03-08T10:18:41;3.40;99.90
49224;DHT22;35050;51.316;5.994;2023-03-08T10:21:11;3.60;99.90
49224;DHT22;35050;51.316;5.994;2023-03-08T10:23:37;3.80;99.90
49224;DHT22;35050;51.316;5.994;2023-03-08T10:26:10;3.40;99.90
49224;DHT22;35050;51.316;5.994;2023-03-08T10:28:36;3.30;99.90
49224;DHT22;35050;51.316;5.994;2023-03-08T10:31:04;3.60;99.90
49224;DHT22;35050;51.316;5.994;2023-03-08T10:33:35;3.70;99.90
49224;DHT22;35050;51.316;5.994;2023-03-08T10:36:22;3.40;99.90
49224;DHT22;35050;51.316;5.994;2023-03-08T10:39:08;3.50;99.90
49224;DHT22;35050;51.316;5.994;2023-03-08T10:41:55;3.40;99.90
49224;DHT22;35050;51.316;5.994;2023-03-08T10:47:32;3.50;99.90
49224;DHT22;35050;51.316;5.994;2023-03-08T10:50:19;3.70;99.90
49224;DHT22;35050;51.316;5.994;2023-03-08T10:52:47;3.80;99.90
49224;DHT22;35050;51.316;5.994;2023-03-08T10:57:55;3.80;99.90
49224;DHT22;35050;51.316;5.994;2023-03-08T11:00:38;3.40;99.90
49224;DHT22;35050;51.316;5.994;2023-03-08T11:03:22;3.40;99.90
49224;DHT22;35050;51.316;5.994;2023-03-08T11:06:04;3.30;99.90
49224;DHT22;35050;51.316;5.994;2023-03-08T11:08:39;3.50;99.90
49224;DHT22;35050;51.316;5.994;2023-03-08T11:11:11;3.60;99.90
49224;DHT22;35050;51.316;5.994;2023-03-08T11:13:39;3.50;99.90
49224;DHT22;35050;51.316;5.994;2023-03-08T11:16:16;3.60;99.90
49224;DHT22;35050;51.316;5.994;2023-03-08T11:19:08;3.60;99.90
49224;DHT22;35050;51.316;5.994;2023-03-08T11:21:59;3.40;99.90
49224;DHT22;35050;51.316;5.994;2023-03-08T11:30:01;3.20;99.90
49224;DHT22;35050;51.316;5.994;2023-03-08T11:32:43;3.40;99.90
49224;DHT22;35050;51.316;5.994;2023-03-08T11:35:26;3.70;99.90
49224;DHT22;35050;51.316;5.994;2023-03-08T11:49:00;3.30;99.90
49224;DHT22;35050;51.316;5.994;2023-03-08T11:51:40;3.20;99.90
49224;DHT22;35050;51.316;5.994;2023-03-08T11:57:04;3.40;99.90
49224;DHT22;35050;51.316;5.994;2023-03-08T11:59:42;3.50;99.90
49224;DHT22;35050;51.316;5.994;2023-03-08T12:02:18;3.50;99.90
49224;DHT22;35050;51.316;5.994;2023-03-08T12:05:06;3.50;99.90
49224;DHT22;35050;51.316;5.994;2023-03-08T12:07:44;3.40;99.90
49224;DHT22;35050;51.316;5.994;2023-03-08T12:10:42;3.70;99.90
49224;DHT22;35050;51.316;5.994;2023-03-08T12:18:44;3.30;99.90
49224;DHT22;35050;51.316;5.994;2023-03-08T12:26:41;3.50;99.90
49224;DHT22;35050;51.316;5.994;2023-03-08T12:29:18;3.60;99.90
49224;DHT22;35050;51.316;5.994;2023-03-08T12:31:46;3.40;99.90
49224;DHT22;35050;51.316;5.994;2023-03-08T12:34:37;3.70;99.90
49224;DHT22;35050;51.316;5.994;2023-03-08T12:37:03;3.70;99.90
49224;DHT22;35050;51.316;5.994;2023-03-08T12:39:34;3.80;99.90
49224;DHT22;35050;51.316;5.994;2023-03-08T12:42:01;3.70;99.90
49224;DHT22;35050;51.316;5.994;2023-03-08T12:44:29;3.80;99.90
49224;DHT22;35050;51.316;5.994;2023-03-08T12:47:19;3.40;99.90
49224;DHT22;35050;51.316;5.994;2023-03-08T12:49:49;3.60;99.90
49224;DHT22;35050;51.316;5.994;2023-03-08T12:55:20;4.00;99.90
49224;DHT22;35050;51.316;5.994;2023-03-08T12:57:51;3.90;99.90
49224;DHT22;35050;51.316;5.994;2023-03-08T13:00:27;3.80;99.90
49224;DHT22;35050;51.316;5.994;2023-03-08T13:05:40;3.90;99.90
49224;DHT22;35050;51.316;5.994;2023-03-08T13:16:21;4.00;99.90
49224;DHT22;35050;51.316;5.994;2023-03-08T13:18:49;6.20;99.90
49224;DHT22;35050;51.316;5.994;2023-03-08T13:21:31;6.20;99.90
49224;DHT22;35050;51.316;5.994;2023-03-08T13:29:21;5.90;99.90
49224;DHT22;35050;51.316;5.994;2023-03-08T13:31:54;6.90;99.90
49224;DHT22;35050;51.316;5.994;2023-03-08T13:34:26;6.30;99.90
49224;DHT22;35050;51.316;5.994;2023-03-08T13:36:52;5.20;99.90
49224;DHT22;35050;51.316;5.994;2023-03-08T13:39:21;4.50;99.90
49224;DHT22;35050;51.316;5.994;2023-03-08T13:41:48;4.30;99.90
49224;DHT22;35050;51.316;5.994;2023-03-08T13:44:21;4.10;99.90
49224;DHT22;35050;51.316;5.994;2023-03-08T13:46:49;4.20;99.90
49224;DHT22;35050;51.316;5.994;2023-03-08T13:49:23;4.20;99.90
49224;DHT22;35050;51.316;5.994;2023-03-08T13:51:52;4.20;99.90
49224;DHT22;35050;51.316;5.994;2023-03-08T13:54:35;4.10;99.90
49224;DHT22;35050;51.316;5.994;2023-03-08T13:57:14;4.00;99.90
49224;DHT22;35050;51.316;5.994;2023-03-08T13:59:50;3.70;99.90
49224;DHT22;35050;51.316;5.994;2023-03-08T14:02:27;3.70;99.90
49224;DHT22;35050;51.316;5.994;2023-03-08T14:04:53;3.50;99.90
49224;DHT22;35050;51.316;5.994;2023-03-08T14:07:28;3.80;99.90
49224;DHT22;35050;51.316;5.994;2023-03-08T14:09:54;3.80;99.90
49224;DHT22;35050;51.316;5.994;2023-03-08T14:12:23;3.60;99.90
49224;DHT22;35050;51.316;5.994;2023-03-08T14:14:52;3.70;99.90
49224;DHT22;35050;51.316;5.994;2023-03-08T14:17:24;4.00;99.90
49224;DHT22;35050;51.316;5.994;2023-03-08T14:19:54;3.80;99.90
49224;DHT22;35050;51.316;5.994;2023-03-08T14:22:21;3.80;99.90
49224;DHT22;35050;51.316;5.994;2023-03-08T14:24:56;3.80;99.90
49224;DHT22;35050;51.316;5.994;2023-03-08T14:27:27;3.60;99.90
49224;DHT22;35050;51.316;5.994;2023-03-08T14:30:09;3.60;99.90
49224;DHT22;35050;51.316;5.994;2023-03-08T14:32:36;3.80;99.90
49224;DHT22;35050;51.316;5.994;2023-03-08T14:35:42;3.90;99.90
49224;DHT22;35050;51.316;5.994;2023-03-08T14:38:30;3.90;99.90
49224;DHT22;35050;51.316;5.994;2023-03-08T14:40:57;4.00;99.90
49224;DHT22;35050;51.316;5.994;2023-03-08T14:43:25;3.90;99.90
49224;DHT22;35050;51.316;5.994;2023-03-08T14:45:53;3.80;99.90
49224;DHT22;35050;51.316;5.994;2023-03-08T14:48:36;3.80;99.90
49224;DHT22;35050;51.316;5.994;2023-03-08T14:51:04;3.70;99.90
49224;DHT22;35050;51.316;5.994;2023-03-08T14:55:58;3.70;99.90
49224;DHT22;35050;51.316;5.994;2023-03-08T14:58:32;4.50;99.90
49224;DHT22;35050;51.316;5.994;2023-03-08T15:01:00;4.10;99.90
49224;DHT22;35050;51.316;5.994;2023-03-08T15:03:30;3.90;99.90
49224;DHT22;35050;51.316;5.994;2023-03-08T15:05:57;4.10;99.90
49224;DHT22;35050;51.316;5.994;2023-03-08T15:08:23;4.20;99.90
49224;DHT22;35050;51.316;5.994;2023-03-08T15:10:50;4.20;99.90
49224;DHT22;35050;51.316;5.994;2023-03-08T15:13:19;4.30;99.90
49224;DHT22;35050;51.316;5.994;2023-03-08T15:15:45;4.10;99.90
49224;DHT22;35050;51.316;5.994;2023-03-08T15:18:11;4.10;99.90
49224;DHT22;35050;51.316;5.994;2023-03-08T15:20:39;4.10;99.90
49224;DHT22;35050;51.316;5.994;2023-03-08T15:23:18;4.20;99.90
49224;DHT22;35050;51.316;5.994;2023-03-08T15:25:44;4.20;99.90
49224;DHT22;35050;51.316;5.994;2023-03-08T15:28:14;4.20;99.90
49224;DHT22;35050;51.316;5.994;2023-03-08T15:30:40;4.20;99.90
49224;DHT22;35050;51.316;5.994;2023-03-08T15:33:06;4.00;99.90
49224;DHT22;35050;51.316;5.994;2023-03-08T15:35:32;3.80;99.90
49224;DHT22;35050;51.316;5.994;2023-03-08T15:37:57;4.00;99.90
49224;DHT22;35050;51.316;5.994;2023-03-08T15:40:27;3.80;99.90
49224;DHT22;35050;51.316;5.994;2023-03-08T15:42:53;3.90;99.90
49224;DHT22;35050;51.316;5.994;2023-03-08T15:45:19;4.10;99.90
49224;DHT22;35050;51.316;5.994;2023-03-08T15:47:55;3.90;99.90
49224;DHT22;35050;51.316;5.994;2023-03-08T15:50:21;3.90;99.90
49224;DHT22;35050;51.316;5.994;2023-03-08T15:52:46;3.90;99.90
49224;DHT22;35050;51.316;5.994;2023-03-08T15:55:13;3.90;99.90
49224;DHT22;35050;51.316;5.994;2023-03-08T15:57:39;3.90;99.90
49224;DHT22;35050;51.316;5.994;2023-03-08T16:00:07;3.80;99.90
49224;DHT22;35050;51.316;5.994;2023-03-08T16:02:34;3.80;99.90
49224;DHT22;35050;51.316;5.994;2023-03-08T16:05:01;3.80;99.90
49224;DHT22;35050;51.316;5.994;2023-03-08T16:07:26;3.70;99.90
49224;DHT22;35050;51.316;5.994;2023-03-08T16:09:52;3.80;99.90
49224;DHT22;35050;51.316;5.994;2023-03-08T16:12:18;3.90;99.90
49224;DHT22;35050;51.316;5.994;2023-03-08T16:14:48;3.80;99.90
49224;DHT22;35050;51.316;5.994;2023-03-08T16:17:15;3.90;99.90
49224;DHT22;35050;51.316;5.994;2023-03-08T16:19:42;3.90;99.90
49224;DHT22;35050;51.316;5.994;2023-03-08T16:22:08;3.80;99.90
49224;DHT22;35050;51.316;5.994;2023-03-08T16:24:34;3.90;99.90
49224;DHT22;35050;51.316;5.994;2023-03-08T16:26:59;3.80;99.90
49224;DHT22;35050;51.316;5.994;2023-03-08T16:29:25;3.80;99.90
49224;DHT22;35050;51.316;5.994;2023-03-08T16:31:51;4.00;99.90
49224;DHT22;35050;51.316;5.994;2023-03-08T16:34:17;3.80;99.90
49224;DHT22;35050;51.316;5.994;2023-03-08T16:36:43;3.70;99.90
49224;DHT22;35050;51.316;5.994;2023-03-08T16:39:10;3.80;99.90
49224;DHT22;35050;51.316;5.994;2023-03-08T16:41:37;3.90;99.90
49224;DHT22;35050;51.316;5.994;2023-03-08T16:44:04;3.80;99.90
49224;DHT22;35050;51.316;5.994;2023-03-08T16:46:31;3.70;99.90
49224;DHT22;35050;51.316;5.994;2023-03-08T16:48:56;3.50;99.90
49224;DHT22;35050;51.316;5.994;2023-03-08T16:51:25;3.50;99.90
49224;DHT22;35050;51.316;5.994;2023-03-08T16:53:51;3.50;99.90
49224;DHT22;35050;51.316;5.994;2023-03-08T16:56:25;3.50;99.90
49224;DHT22;35050;51.316;5.994;2023-03-08T16:58:52;3.40;99.90
49224;DHT22;35050;51.316;5.994;2023-03-08T17:01:19;3.40;99.90
49224;DHT22;35050;51.316;5.994;2023-03-08T17:03:44;3.50;99.90
49224;DHT22;35050;51.316;5.994;2023-03-08T17:06:12;3.60;99.90
49224;DHT22;35050;51.316;5.994;2023-03-08T17:08:38;3.70;99.90
49224;DHT22;35050;51.316;5.994;2023-03-08T17:11:04;3.80;99.90
49224;DHT22;35050;51.316;5.994;2023-03-08T17:13:31;3.60;99.90